sensor_id;sensor_type;location;lat;lon;timestamp;pressure;altitude;pressure_sealevel;temperature
9985;BMP180;16737;50.932;6.780;2023-09-12T00:00:28;100047.00;;;26.50
9985;BMP180;16737;50.932;6.780;2023-09-12T00:02:54;100050.00;;;26.40
9985;BMP180;16737;50.932;6.780;2023-09-12T00:05:21;100050.00;;;26.30
9985;BMP180;16737;50.932;6.780;2023-09-12T00:07:52;100055.00;;;26.30
9985;BMP180;16737;50.932;6.780;2023-09-12T00:10:19;100031.00;;;26.20
9985;BMP180;16737;50.932;6.780;2023-09-12T00:12:46;100034.00;;;26.20
9985;BMP180;16737;50.932;6.780;2023-09-12T00:15:13;100027.00;;;26.20
9985;BMP180;16737;50.932;6.780;2023-09-12T00:17:40;100021.00;;;26.20
9985;BMP180;16737;50.932;6.780;2023-09-12T00:20:08;99997.00;;;26.10
9985;BMP180;16737;50.932;6.780;2023-09-12T00:22:35;99995.00;;;26.10
9985;BMP180;16737;50.932;6.780;2023-09-12T00:25:05;99996.00;;;26.10
9985;BMP180;16737;50.932;6.780;2023-09-12T00:27:32;99999.00;;;26.10
9985;BMP180;16737;50.932;6.780;2023-09-12T00:29:58;99987.00;;;26.10
9985;BMP180;16737;50.932;6.780;2023-09-12T00:32:25;99996.00;;;26.00
9985;BMP180;16737;50.932;6.780;2023-09-12T00:34:52;99989.00;;;26.00
9985;BMP180;16737;50.932;6.780;2023-09-12T00:37:19;99989.00;;;26.00
9985;BMP180;16737;50.932;6.780;2023-09-12T00:39:46;99986.00;;;26.00
9985;BMP180;16737;50.932;6.780;2023-09-12T00:42:15;99995.00;;;26.00
9985;BMP180;16737;50.932;6.780;2023-09-12T00:44:42;100000.00;;;26.00
9985;BMP180;16737;50.932;6.780;2023-09-12T00:47:10;100003.00;;;25.90
9985;BMP180;16737;50.932;6.780;2023-09-12T00:49:39;100005.00;;;25.90
9985;BMP180;16737;50.932;6.780;2023-09-12T00:52:07;100007.00;;;25.90
9985;BMP180;16737;50.932;6.780;2023-09-12T00:54:34;99994.00;;;25.90
9985;BMP180;16737;50.932;6.780;2023-09-12T00:57:01;99986.00;;;25.80
9985;BMP180;16737;50.932;6.780;2023-09-12T00:59:30;99990.00;;;25.80
9985;BMP180;16737;50.932;6.780;2023-09-12T01:01:57;99962.00;;;25.90
9985;BMP180;16737;50.932;6.780;2023-09-12T01:04:25;99994.00;;;25.90
9985;BMP180;16737;50.932;6.780;2023-09-12T01:06:53;99994.00;;;25.90
9985;BMP180;16737;50.932;6.780;2023-09-12T01:09:20;99980.00;;;25.90
9985;BMP180;16737;50.932;6.780;2023-09-12T01:11:47;99984.00;;;25.80
9985;BMP180;16737;50.932;6.780;2023-09-12T01:14:14;99977.00;;;25.90
9985;BMP180;16737;50.932;6.780;2023-09-12T01:16:42;99980.00;;;25.80
9985;BMP180;16737;50.932;6.780;2023-09-12T01:19:11;99986.00;;;25.80
9985;BMP180;16737;50.932;6.780;2023-09-12T01:22:21;99994.00;;;25.80
9985;BMP180;16737;50.932;6.780;2023-09-12T01:25:28;99992.00;;;25.70
9985;BMP180;16737;50.932;6.780;2023-09-12T01:28:05;99989.00;;;25.80
9985;BMP180;16737;50.932;6.780;2023-09-12T01:30:35;100000.00;;;25.70
9985;BMP180;16737;50.932;6.780;2023-09-12T01:33:03;99998.00;;;25.60
9985;BMP180;16737;50.932;6.780;2023-09-12T01:35:30;100004.00;;;25.60
9985;BMP180;16737;50.932;6.780;2023-09-12T01:37:57;100005.00;;;25.60
9985;BMP180;16737;50.932;6.780;2023-09-12T01:40:34;100003.00;;;25.60
9985;BMP180;16737;50.932;6.780;2023-09-12T01:43:07;99975.00;;;25.60
9985;BMP180;16737;50.932;6.780;2023-09-12T01:45:36;99988.00;;;25.60
9985;BMP180;16737;50.932;6.780;2023-09-12T01:48:05;99977.00;;;25.60
9985;BMP180;16737;50.932;6.780;2023-09-12T01:50:33;99983.00;;;25.60
9985;BMP180;16737;50.932;6.780;2023-09-12T01:53:02;99985.00;;;25.60
9985;BMP180;16737;50.932;6.780;2023-09-12T01:55:29;99978.00;;;25.60
9985;BMP180;16737;50.932;6.780;2023-09-12T01:57:57;99964.00;;;25.60
9985;BMP180;16737;50.932;6.780;2023-09-12T02:00:26;99967.00;;;25.50
9985;BMP180;16737;50.932;6.780;2023-09-12T02:02:53;99976.00;;;25.50
9985;BMP180;16737;50.932;6.780;2023-09-12T02:05:22;99970.00;;;25.50
9985;BMP180;16737;50.932;6.780;2023-09-12T02:07:49;99982.00;;;25.50
9985;BMP180;16737;50.932;6.780;2023-09-12T02:10:16;99969.00;;;25.40
9985;BMP180;16737;50.932;6.780;2023-09-12T02:12:43;99989.00;;;25.40
9985;BMP180;16737;50.932;6.780;2023-09-12T02:15:10;100009.00;;;25.40
9985;BMP180;16737;50.932;6.780;2023-09-12T02:17:39;100020.00;;;25.40
9985;BMP180;16737;50.932;6.780;2023-09-12T02:20:08;100009.00;;;25.30
9985;BMP180;16737;50.932;6.780;2023-09-12T02:22:35;100009.00;;;25.30
9985;BMP180;16737;50.932;6.780;2023-09-12T02:25:03;100007.00;;;25.20
9985;BMP180;16737;50.932;6.780;2023-09-12T02:27:31;99996.00;;;25.20
9985;BMP180;16737;50.932;6.780;2023-09-12T02:29:58;99993.00;;;25.20
9985;BMP180;16737;50.932;6.780;2023-09-12T02:32:24;99999.00;;;25.20
9985;BMP180;16737;50.932;6.780;2023-09-12T02:34:53;100000.00;;;25.20
9985;BMP180;16737;50.932;6.780;2023-09-12T02:37:22;99997.00;;;25.20
9985;BMP180;16737;50.932;6.780;2023-09-12T02:39:49;99994.00;;;25.20
9985;BMP180;16737;50.932;6.780;2023-09-12T02:42:16;99985.00;;;25.30
9985;BMP180;16737;50.932;6.780;2023-09-12T02:44:42;99985.00;;;25.30
9985;BMP180;16737;50.932;6.780;2023-09-12T02:47:09;99982.00;;;25.20
9985;BMP180;16737;50.932;6.780;2023-09-12T02:49:36;99968.00;;;25.20
9985;BMP180;16737;50.932;6.780;2023-09-12T02:52:05;99975.00;;;25.20
9985;BMP180;16737;50.932;6.780;2023-09-12T02:54:32;99977.00;;;25.20
9985;BMP180;16737;50.932;6.780;2023-09-12T02:56:59;99969.00;;;25.20
9985;BMP180;16737;50.932;6.780;2023-09-12T02:59:25;99977.00;;;25.20
9985;BMP180;16737;50.932;6.780;2023-09-12T03:01:52;99984.00;;;25.20
9985;BMP180;16737;50.932;6.780;2023-09-12T03:04:19;99974.00;;;25.20
9985;BMP180;16737;50.932;6.780;2023-09-12T03:06:46;99986.00;;;25.20
9985;BMP180;16737;50.932;6.780;2023-09-12T03:09:14;99971.00;;;25.20
9985;BMP180;16737;50.932;6.780;2023-09-12T03:11:43;99972.00;;;25.20
9985;BMP180;16737;50.932;6.780;2023-09-12T03:14:09;99978.00;;;25.20
9985;BMP180;16737;50.932;6.780;2023-09-12T03:16:36;99960.00;;;25.20
9985;BMP180;16737;50.932;6.780;2023-09-12T03:19:04;99968.00;;;25.00
9985;BMP180;16737;50.932;6.780;2023-09-12T03:21:31;99973.00;;;25.20
9985;BMP180;16737;50.932;6.780;2023-09-12T03:23:58;99971.00;;;25.20
9985;BMP180;16737;50.932;6.780;2023-09-12T03:26:27;99964.00;;;25.10
9985;BMP180;16737;50.932;6.780;2023-09-12T03:28:53;99957.00;;;25.20
9985;BMP180;16737;50.932;6.780;2023-09-12T03:31:20;99958.00;;;25.20
9985;BMP180;16737;50.932;6.780;2023-09-12T03:33:48;99958.00;;;25.20
9985;BMP180;16737;50.932;6.780;2023-09-12T03:36:16;99961.00;;;25.30
9985;BMP180;16737;50.932;6.780;2023-09-12T03:38:43;99949.00;;;25.30
9985;BMP180;16737;50.932;6.780;2023-09-12T03:41:10;99955.00;;;25.30
9985;BMP180;16737;50.932;6.780;2023-09-12T03:43:39;99958.00;;;25.30
9985;BMP180;16737;50.932;6.780;2023-09-12T03:46:05;99964.00;;;25.30
9985;BMP180;16737;50.932;6.780;2023-09-12T03:48:33;99961.00;;;25.30
9985;BMP180;16737;50.932;6.780;2023-09-12T03:51:02;99951.00;;;25.30
9985;BMP180;16737;50.932;6.780;2023-09-12T03:53:29;99952.00;;;25.00
9985;BMP180;16737;50.932;6.780;2023-09-12T03:55:58;99927.00;;;25.40
9985;BMP180;16737;50.932;6.780;2023-09-12T03:58:25;99941.00;;;25.40
9985;BMP180;16737;50.932;6.780;2023-09-12T04:00:53;99958.00;;;25.40
9985;BMP180;16737;50.932;6.780;2023-09-12T04:03:20;99936.00;;;25.50
9985;BMP180;16737;50.932;6.780;2023-09-12T04:05:47;99937.00;;;25.50
9985;BMP180;16737;50.932;6.780;2023-09-12T04:08:14;99940.00;;;25.40
9985;BMP180;16737;50.932;6.780;2023-09-12T04:10:42;99943.00;;;25.60
9985;BMP180;16737;50.932;6.780;2023-09-12T04:13:09;99949.00;;;25.60
9985;BMP180;16737;50.932;6.780;2023-09-12T04:15:36;99934.00;;;25.60
9985;BMP180;16737;50.932;6.780;2023-09-12T04:18:05;99938.00;;;25.60
9985;BMP180;16737;50.932;6.780;2023-09-12T04:20:32;99931.00;;;25.60
9985;BMP180;16737;50.932;6.780;2023-09-12T04:23:01;99917.00;;;25.60
9985;BMP180;16737;50.932;6.780;2023-09-12T04:25:29;99922.00;;;25.70
9985;BMP180;16737;50.932;6.780;2023-09-12T04:27:56;99914.00;;;25.70
9985;BMP180;16737;50.932;6.780;2023-09-12T04:30:23;99899.00;;;25.70
9985;BMP180;16737;50.932;6.780;2023-09-12T04:32:50;99893.00;;;25.70
9985;BMP180;16737;50.932;6.780;2023-09-12T04:35:18;99864.00;;;25.70
9985;BMP180;16737;50.932;6.780;2023-09-12T04:37:46;99862.00;;;25.60
9985;BMP180;16737;50.932;6.780;2023-09-12T04:40:13;99871.00;;;25.60
9985;BMP180;16737;50.932;6.780;2023-09-12T04:42:40;99869.00;;;25.60
9985;BMP180;16737;50.932;6.780;2023-09-12T04:45:08;99882.00;;;25.60
9985;BMP180;16737;50.932;6.780;2023-09-12T04:47:35;99898.00;;;25.60
9985;BMP180;16737;50.932;6.780;2023-09-12T04:50:02;99897.00;;;25.70
9985;BMP180;16737;50.932;6.780;2023-09-12T04:52:30;99912.00;;;25.70
9985;BMP180;16737;50.932;6.780;2023-09-12T04:54:57;99916.00;;;25.70
9985;BMP180;16737;50.932;6.780;2023-09-12T04:57:24;99924.00;;;25.70
9985;BMP180;16737;50.932;6.780;2023-09-12T04:59:51;99927.00;;;25.60
9985;BMP180;16737;50.932;6.780;2023-09-12T05:02:19;99938.00;;;25.70
9985;BMP180;16737;50.932;6.780;2023-09-12T05:04:45;99941.00;;;25.70
9985;BMP180;16737;50.932;6.780;2023-09-12T05:07:13;99957.00;;;25.60
9985;BMP180;16737;50.932;6.780;2023-09-12T05:09:41;99960.00;;;25.50
9985;BMP180;16737;50.932;6.780;2023-09-12T05:12:08;99965.00;;;25.60
9985;BMP180;16737;50.932;6.780;2023-09-12T05:14:35;99975.00;;;25.60
9985;BMP180;16737;50.932;6.780;2023-09-12T05:17:02;99986.00;;;25.50
9985;BMP180;16737;50.932;6.780;2023-09-12T05:19:30;99994.00;;;25.40
9985;BMP180;16737;50.932;6.780;2023-09-12T05:21:57;99984.00;;;25.40
9985;BMP180;16737;50.932;6.780;2023-09-12T05:24:24;100003.00;;;25.30
9985;BMP180;16737;50.932;6.780;2023-09-12T05:26:52;99996.00;;;25.20
9985;BMP180;16737;50.932;6.780;2023-09-12T05:29:19;99994.00;;;25.20
9985;BMP180;16737;50.932;6.780;2023-09-12T05:31:46;99981.00;;;25.10
9985;BMP180;16737;50.932;6.780;2023-09-12T05:34:13;99987.00;;;25.10
9985;BMP180;16737;50.932;6.780;2023-09-12T05:36:40;99984.00;;;25.00
9985;BMP180;16737;50.932;6.780;2023-09-12T05:39:06;99985.00;;;25.00
9985;BMP180;16737;50.932;6.780;2023-09-12T05:41:34;99975.00;;;25.00
9985;BMP180;16737;50.932;6.780;2023-09-12T05:44:03;99976.00;;;25.00
9985;BMP180;16737;50.932;6.780;2023-09-12T05:46:30;99915.00;;;25.00
9985;BMP180;16737;50.932;6.780;2023-09-12T05:48:57;99969.00;;;25.10
9985;BMP180;16737;50.932;6.780;2023-09-12T05:51:24;99969.00;;;25.10
9985;BMP180;16737;50.932;6.780;2023-09-12T05:53:51;99964.00;;;25.20
9985;BMP180;16737;50.932;6.780;2023-09-12T05:56:18;99963.00;;;25.20
9985;BMP180;16737;50.932;6.780;2023-09-12T05:58:46;99959.00;;;25.30
9985;BMP180;16737;50.932;6.780;2023-09-12T06:01:14;99973.00;;;25.30
9985;BMP180;16737;50.932;6.780;2023-09-12T06:03:41;99989.00;;;25.40
9985;BMP180;16737;50.932;6.780;2023-09-12T06:06:08;99991.00;;;25.40
9985;BMP180;16737;50.932;6.780;2023-09-12T06:08:35;100001.00;;;25.30
9985;BMP180;16737;50.932;6.780;2023-09-12T06:11:02;99996.00;;;25.40
9985;BMP180;16737;50.932;6.780;2023-09-12T06:13:29;100018.00;;;25.50
9985;BMP180;16737;50.932;6.780;2023-09-12T06:15:58;100016.00;;;25.50
9985;BMP180;16737;50.932;6.780;2023-09-12T06:18:26;100012.00;;;25.50
9985;BMP180;16737;50.932;6.780;2023-09-12T06:20:55;100006.00;;;25.50
9985;BMP180;16737;50.932;6.780;2023-09-12T06:23:22;99998.00;;;25.50
9985;BMP180;16737;50.932;6.780;2023-09-12T06:25:49;99987.00;;;25.50
9985;BMP180;16737;50.932;6.780;2023-09-12T06:28:25;99987.00;;;25.50
9985;BMP180;16737;50.932;6.780;2023-09-12T06:30:52;99987.00;;;25.60
9985;BMP180;16737;50.932;6.780;2023-09-12T06:33:19;99994.00;;;25.60
9985;BMP180;16737;50.932;6.780;2023-09-12T06:35:49;99996.00;;;25.60
9985;BMP180;16737;50.932;6.780;2023-09-12T06:38:18;99943.00;;;25.60
9985;BMP180;16737;50.932;6.780;2023-09-12T06:40:45;99991.00;;;25.70
9985;BMP180;16737;50.932;6.780;2023-09-12T06:43:12;99987.00;;;25.70
9985;BMP180;16737;50.932;6.780;2023-09-12T06:45:41;99992.00;;;25.80
9985;BMP180;16737;50.932;6.780;2023-09-12T06:48:08;99996.00;;;25.80
9985;BMP180;16737;50.932;6.780;2023-09-12T06:50:35;100003.00;;;25.90
9985;BMP180;16737;50.932;6.780;2023-09-12T06:53:05;100001.00;;;25.90
9985;BMP180;16737;50.932;6.780;2023-09-12T06:55:32;99996.00;;;25.90
9985;BMP180;16737;50.932;6.780;2023-09-12T06:57:59;99993.00;;;26.00
9985;BMP180;16737;50.932;6.780;2023-09-12T07:00:26;99997.00;;;26.00
9985;BMP180;16737;50.932;6.780;2023-09-12T07:02:53;99985.00;;;26.10
9985;BMP180;16737;50.932;6.780;2023-09-12T07:05:20;99980.00;;;26.10
9985;BMP180;16737;50.932;6.780;2023-09-12T07:07:47;99994.00;;;26.10
9985;BMP180;16737;50.932;6.780;2023-09-12T07:10:15;99984.00;;;26.10
9985;BMP180;16737;50.932;6.780;2023-09-12T07:12:42;99982.00;;;26.20
9985;BMP180;16737;50.932;6.780;2023-09-12T07:15:10;99979.00;;;26.20
9985;BMP180;16737;50.932;6.780;2023-09-12T07:17:37;99973.00;;;26.20
9985;BMP180;16737;50.932;6.780;2023-09-12T07:20:05;99969.00;;;26.20
9985;BMP180;16737;50.932;6.780;2023-09-12T07:22:37;99987.00;;;26.20
9985;BMP180;16737;50.932;6.780;2023-09-12T07:25:07;99979.00;;;26.30
9985;BMP180;16737;50.932;6.780;2023-09-12T07:27:36;99977.00;;;26.30
9985;BMP180;16737;50.932;6.780;2023-09-12T07:30:04;99979.00;;;26.30
9985;BMP180;16737;50.932;6.780;2023-09-12T07:32:31;99968.00;;;26.30
9985;BMP180;16737;50.932;6.780;2023-09-12T07:34:58;99980.00;;;26.30
9985;BMP180;16737;50.932;6.780;2023-09-12T07:37:25;99976.00;;;26.30
9985;BMP180;16737;50.932;6.780;2023-09-12T07:39:52;99972.00;;;26.30
9985;BMP180;16737;50.932;6.780;2023-09-12T07:42:22;99979.00;;;26.30
9985;BMP180;16737;50.932;6.780;2023-09-12T07:44:51;99977.00;;;26.30
9985;BMP180;16737;50.932;6.780;2023-09-12T07:47:18;99969.00;;;26.30
9985;BMP180;16737;50.932;6.780;2023-09-12T07:49:45;99973.00;;;26.40
9985;BMP180;16737;50.932;6.780;2023-09-12T07:52:12;99971.00;;;26.40
9985;BMP180;16737;50.932;6.780;2023-09-12T07:54:39;99982.00;;;26.40
9985;BMP180;16737;50.932;6.780;2023-09-12T07:57:06;99972.00;;;26.40
9985;BMP180;16737;50.932;6.780;2023-09-12T07:59:34;99989.00;;;26.40
9985;BMP180;16737;50.932;6.780;2023-09-12T08:02:03;99976.00;;;26.50
9985;BMP180;16737;50.932;6.780;2023-09-12T08:04:30;99975.00;;;26.50
9985;BMP180;16737;50.932;6.780;2023-09-12T08:06:56;99976.00;;;26.60
9985;BMP180;16737;50.932;6.780;2023-09-12T08:09:23;99980.00;;;26.60
9985;BMP180;16737;50.932;6.780;2023-09-12T08:11:50;99985.00;;;26.60
9985;BMP180;16737;50.932;6.780;2023-09-12T08:14:17;99969.00;;;26.70
9985;BMP180;16737;50.932;6.780;2023-09-12T08:16:46;99998.00;;;26.70
9985;BMP180;16737;50.932;6.780;2023-09-12T08:19:14;99982.00;;;26.70
9985;BMP180;16737;50.932;6.780;2023-09-12T08:21:41;99991.00;;;26.70
9985;BMP180;16737;50.932;6.780;2023-09-12T08:24:08;99993.00;;;26.80
9985;BMP180;16737;50.932;6.780;2023-09-12T08:26:35;100002.00;;;26.80
9985;BMP180;16737;50.932;6.780;2023-09-12T08:29:01;99995.00;;;26.80
9985;BMP180;16737;50.932;6.780;2023-09-12T08:31:28;99998.00;;;26.90
9985;BMP180;16737;50.932;6.780;2023-09-12T08:33:55;100008.00;;;27.00
9985;BMP180;16737;50.932;6.780;2023-09-12T08:36:23;100016.00;;;27.00
9985;BMP180;16737;50.932;6.780;2023-09-12T08:38:50;100017.00;;;27.10
9985;BMP180;16737;50.932;6.780;2023-09-12T08:41:17;100020.00;;;27.10
9985;BMP180;16737;50.932;6.780;2023-09-12T08:43:45;100020.00;;;27.20
9985;BMP180;16737;50.932;6.780;2023-09-12T08:46:13;100028.00;;;27.20
9985;BMP180;16737;50.932;6.780;2023-09-12T08:48:42;100037.00;;;27.30
9985;BMP180;16737;50.932;6.780;2023-09-12T08:51:11;100021.00;;;27.40
9985;BMP180;16737;50.932;6.780;2023-09-12T08:53:40;100040.00;;;27.40
9985;BMP180;16737;50.932;6.780;2023-09-12T08:56:09;100041.00;;;27.50
9985;BMP180;16737;50.932;6.780;2023-09-12T08:58:37;100044.00;;;27.60
9985;BMP180;16737;50.932;6.780;2023-09-12T09:01:06;100037.00;;;27.60
9985;BMP180;16737;50.932;6.780;2023-09-12T09:03:37;100043.00;;;27.70
9985;BMP180;16737;50.932;6.780;2023-09-12T09:06:05;100052.00;;;27.80
9985;BMP180;16737;50.932;6.780;2023-09-12T09:08:33;100043.00;;;27.80
9985;BMP180;16737;50.932;6.780;2023-09-12T09:11:02;100055.00;;;27.90
9985;BMP180;16737;50.932;6.780;2023-09-12T09:13:31;100044.00;;;28.00
9985;BMP180;16737;50.932;6.780;2023-09-12T09:16:12;100046.00;;;28.00
9985;BMP180;16737;50.932;6.780;2023-09-12T09:18:53;100050.00;;;28.00
9985;BMP180;16737;50.932;6.780;2023-09-12T09:21:22;100039.00;;;28.10
9985;BMP180;16737;50.932;6.780;2023-09-12T09:23:52;100056.00;;;28.10
9985;BMP180;16737;50.932;6.780;2023-09-12T09:26:21;100061.00;;;28.10
9985;BMP180;16737;50.932;6.780;2023-09-12T09:29:03;100050.00;;;28.10
9985;BMP180;16737;50.932;6.780;2023-09-12T09:31:30;100052.00;;;28.20
9985;BMP180;16737;50.932;6.780;2023-09-12T09:33:59;100048.00;;;28.20
9985;BMP180;16737;50.932;6.780;2023-09-12T09:36:27;100051.00;;;28.20
9985;BMP180;16737;50.932;6.780;2023-09-12T09:38:55;100062.00;;;28.20
9985;BMP180;16737;50.932;6.780;2023-09-12T09:41:26;100066.00;;;28.20
9985;BMP180;16737;50.932;6.780;2023-09-12T09:43:53;100062.00;;;28.20
9985;BMP180;16737;50.932;6.780;2023-09-12T09:46:20;100057.00;;;28.30
9985;BMP180;16737;50.932;6.780;2023-09-12T09:48:49;100058.00;;;28.30
9985;BMP180;16737;50.932;6.780;2023-09-12T09:51:17;100062.00;;;28.40
9985;BMP180;16737;50.932;6.780;2023-09-12T09:53:44;100035.00;;;28.40
9985;BMP180;16737;50.932;6.780;2023-09-12T09:56:13;100034.00;;;28.50
9985;BMP180;16737;50.932;6.780;2023-09-12T09:58:48;100026.00;;;28.60
9985;BMP180;16737;50.932;6.780;2023-09-12T10:01:19;100042.00;;;28.60
9985;BMP180;16737;50.932;6.780;2023-09-12T10:03:47;100038.00;;;28.60
9985;BMP180;16737;50.932;6.780;2023-09-12T10:06:16;100038.00;;;28.80
9985;BMP180;16737;50.932;6.780;2023-09-12T10:08:45;100041.00;;;28.80
9985;BMP180;16737;50.932;6.780;2023-09-12T10:11:14;100043.00;;;28.90
9985;BMP180;16737;50.932;6.780;2023-09-12T10:13:49;100035.00;;;28.90
9985;BMP180;16737;50.932;6.780;2023-09-12T10:16:17;100039.00;;;29.00
9985;BMP180;16737;50.932;6.780;2023-09-12T10:18:56;100041.00;;;29.00
9985;BMP180;16737;50.932;6.780;2023-09-12T10:21:29;100045.00;;;29.10
9985;BMP180;16737;50.932;6.780;2023-09-12T10:23:58;100044.00;;;29.20
9985;BMP180;16737;50.932;6.780;2023-09-12T10:26:26;100049.00;;;29.30
9985;BMP180;16737;50.932;6.780;2023-09-12T10:28:55;100043.00;;;29.30
9985;BMP180;16737;50.932;6.780;2023-09-12T10:31:24;100044.00;;;29.30
9985;BMP180;16737;50.932;6.780;2023-09-12T10:33:52;100038.00;;;29.30
9985;BMP180;16737;50.932;6.780;2023-09-12T10:36:20;100042.00;;;29.30
9985;BMP180;16737;50.932;6.780;2023-09-12T10:38:49;100035.00;;;29.40
9985;BMP180;16737;50.932;6.780;2023-09-12T10:41:19;100038.00;;;29.40
9985;BMP180;16737;50.932;6.780;2023-09-12T10:43:48;100037.00;;;29.40
9985;BMP180;16737;50.932;6.780;2023-09-12T10:46:19;100033.00;;;29.40
9985;BMP180;16737;50.932;6.780;2023-09-12T10:48:47;100036.00;;;29.50
9985;BMP180;16737;50.932;6.780;2023-09-12T10:51:17;100041.00;;;29.50
9985;BMP180;16737;50.932;6.780;2023-09-12T10:53:46;100032.00;;;29.50
9985;BMP180;16737;50.932;6.780;2023-09-12T10:56:17;100028.00;;;29.60
9985;BMP180;16737;50.932;6.780;2023-09-12T10:59:21;100033.00;;;29.60
9985;BMP180;16737;50.932;6.780;2023-09-12T11:01:54;100038.00;;;29.70
9985;BMP180;16737;50.932;6.780;2023-09-12T11:04:34;100034.00;;;29.70
9985;BMP180;16737;50.932;6.780;2023-09-12T11:07:30;100040.00;;;29.80
9985;BMP180;16737;50.932;6.780;2023-09-12T11:10:18;100053.00;;;29.80
9985;BMP180;16737;50.932;6.780;2023-09-12T11:12:47;100047.00;;;29.90
9985;BMP180;16737;50.932;6.780;2023-09-12T11:15:15;100035.00;;;29.90
9985;BMP180;16737;50.932;6.780;2023-09-12T11:17:45;100042.00;;;30.00
9985;BMP180;16737;50.932;6.780;2023-09-12T11:20:14;100049.00;;;30.10
9985;BMP180;16737;50.932;6.780;2023-09-12T11:22:43;100045.00;;;30.10
9985;BMP180;16737;50.932;6.780;2023-09-12T11:25:19;100057.00;;;30.20
9985;BMP180;16737;50.932;6.780;2023-09-12T11:28:03;100052.00;;;30.30
9985;BMP180;16737;50.932;6.780;2023-09-12T11:30:31;100051.00;;;30.40
9985;BMP180;16737;50.932;6.780;2023-09-12T11:33:10;100046.00;;;30.40
9985;BMP180;16737;50.932;6.780;2023-09-12T11:35:38;100047.00;;;30.50
9985;BMP180;16737;50.932;6.780;2023-09-12T11:38:10;100045.00;;;30.60
9985;BMP180;16737;50.932;6.780;2023-09-12T11:40:45;100042.00;;;30.60
9985;BMP180;16737;50.932;6.780;2023-09-12T11:43:21;100044.00;;;30.70
9985;BMP180;16737;50.932;6.780;2023-09-12T11:45:49;100041.00;;;30.80
9985;BMP180;16737;50.932;6.780;2023-09-12T11:48:19;100042.00;;;30.80
9985;BMP180;16737;50.932;6.780;2023-09-12T11:50:53;100032.00;;;30.80
9985;BMP180;16737;50.932;6.780;2023-09-12T11:53:22;100034.00;;;30.90
9985;BMP180;16737;50.932;6.780;2023-09-12T11:55:54;100037.00;;;30.90
9985;BMP180;16737;50.932;6.780;2023-09-12T11:58:21;100037.00;;;30.90
9985;BMP180;16737;50.932;6.780;2023-09-12T12:00:50;100048.00;;;30.90
9985;BMP180;16737;50.932;6.780;2023-09-12T12:03:21;100041.00;;;30.80
9985;BMP180;16737;50.932;6.780;2023-09-12T12:05:49;100038.00;;;30.90
9985;BMP180;16737;50.932;6.780;2023-09-12T12:08:17;100031.00;;;31.00
9985;BMP180;16737;50.932;6.780;2023-09-12T12:10:50;100031.00;;;31.00
9985;BMP180;16737;50.932;6.780;2023-09-12T12:13:17;100031.00;;;31.10
9985;BMP180;16737;50.932;6.780;2023-09-12T12:15:44;100034.00;;;31.10
9985;BMP180;16737;50.932;6.780;2023-09-12T12:18:11;100031.00;;;31.20
9985;BMP180;16737;50.932;6.780;2023-09-12T12:20:39;100023.00;;;31.20
9985;BMP180;16737;50.932;6.780;2023-09-12T12:23:06;100022.00;;;31.20
9985;BMP180;16737;50.932;6.780;2023-09-12T12:25:35;99975.00;;;31.20
9985;BMP180;16737;50.932;6.780;2023-09-12T12:28:03;100016.00;;;31.30
9985;BMP180;16737;50.932;6.780;2023-09-12T12:30:31;100016.00;;;31.20
9985;BMP180;16737;50.932;6.780;2023-09-12T12:33:01;100011.00;;;31.20
9985;BMP180;16737;50.932;6.780;2023-09-12T12:35:29;100014.00;;;31.20
9985;BMP180;16737;50.932;6.780;2023-09-12T12:37:57;100014.00;;;31.20
9985;BMP180;16737;50.932;6.780;2023-09-12T12:40:25;100017.00;;;31.20
9985;BMP180;16737;50.932;6.780;2023-09-12T12:42:52;99982.00;;;31.10
9985;BMP180;16737;50.932;6.780;2023-09-12T12:45:21;100021.00;;;31.10
9985;BMP180;16737;50.932;6.780;2023-09-12T12:47:51;99977.00;;;31.10
9985;BMP180;16737;50.932;6.780;2023-09-12T12:50:18;100019.00;;;31.10
9985;BMP180;16737;50.932;6.780;2023-09-12T12:52:47;100014.00;;;31.10
9985;BMP180;16737;50.932;6.780;2023-09-12T12:55:16;100016.00;;;31.00
9985;BMP180;16737;50.932;6.780;2023-09-12T12:57:48;100013.00;;;31.10
9985;BMP180;16737;50.932;6.780;2023-09-12T13:00:17;100018.00;;;30.90
9985;BMP180;16737;50.932;6.780;2023-09-12T13:02:45;100009.00;;;31.10
9985;BMP180;16737;50.932;6.780;2023-09-12T13:05:26;100008.00;;;31.00
9985;BMP180;16737;50.932;6.780;2023-09-12T13:07:54;100003.00;;;31.10
9985;BMP180;16737;50.932;6.780;2023-09-12T13:10:23;100004.00;;;30.80
9985;BMP180;16737;50.932;6.780;2023-09-12T13:12:50;100002.00;;;31.00
9985;BMP180;16737;50.932;6.780;2023-09-12T13:15:17;99996.00;;;31.00
9985;BMP180;16737;50.932;6.780;2023-09-12T13:17:45;99998.00;;;31.00
9985;BMP180;16737;50.932;6.780;2023-09-12T13:20:12;99995.00;;;30.90
9985;BMP180;16737;50.932;6.780;2023-09-12T13:22:39;99984.00;;;30.90
9985;BMP180;16737;50.932;6.780;2023-09-12T13:25:09;99979.00;;;30.90
9985;BMP180;16737;50.932;6.780;2023-09-12T13:27:38;99977.00;;;30.90
9985;BMP180;16737;50.932;6.780;2023-09-12T13:30:06;99976.00;;;30.90
9985;BMP180;16737;50.932;6.780;2023-09-12T13:32:33;99980.00;;;30.90
9985;BMP180;16737;50.932;6.780;2023-09-12T13:35:00;99978.00;;;30.90
9985;BMP180;16737;50.932;6.780;2023-09-12T13:37:27;99971.00;;;30.90
9985;BMP180;16737;50.932;6.780;2023-09-12T13:39:56;99974.00;;;31.00
9985;BMP180;16737;50.932;6.780;2023-09-12T13:42:24;99974.00;;;31.00
9985;BMP180;16737;50.932;6.780;2023-09-12T13:44:57;99966.00;;;31.10
9985;BMP180;16737;50.932;6.780;2023-09-12T13:47:24;99968.00;;;31.10
9985;BMP180;16737;50.932;6.780;2023-09-12T13:49:52;99955.00;;;31.10
9985;BMP180;16737;50.932;6.780;2023-09-12T13:52:19;99967.00;;;31.20
9985;BMP180;16737;50.932;6.780;2023-09-12T13:54:46;99956.00;;;31.20
9985;BMP180;16737;50.932;6.780;2023-09-12T13:57:14;99964.00;;;31.20
9985;BMP180;16737;50.932;6.780;2023-09-12T13:59:41;99954.00;;;31.30
9985;BMP180;16737;50.932;6.780;2023-09-12T14:02:10;99951.00;;;31.40
9985;BMP180;16737;50.932;6.780;2023-09-12T14:04:37;99949.00;;;31.40
9985;BMP180;16737;50.932;6.780;2023-09-12T14:07:04;99902.00;;;31.40
9985;BMP180;16737;50.932;6.780;2023-09-12T14:09:31;99947.00;;;31.40
9985;BMP180;16737;50.932;6.780;2023-09-12T14:11:57;99950.00;;;31.40
9985;BMP180;16737;50.932;6.780;2023-09-12T14:14:24;99965.00;;;31.40
9985;BMP180;16737;50.932;6.780;2023-09-12T14:16:51;99946.00;;;31.40
9985;BMP180;16737;50.932;6.780;2023-09-12T14:19:19;99950.00;;;31.40
9985;BMP180;16737;50.932;6.780;2023-09-12T14:21:46;99945.00;;;31.40
9985;BMP180;16737;50.932;6.780;2023-09-12T14:24:13;99935.00;;;31.50